Time;durP1;ratioP1;P1;durP2;ratioP2;P2;SDS_P1;SDS_P2;PMS_P1;PMS_P2;Temp;Humidity;BMP_temperature;BMP_pressure;BME280_temperature;BME280_humidity;BME280_pressure;Samples;Min_cycle;Max_cycle;Signal;HPM_P1;HPM_P2
2022/01/24 00:01:40;;;;;;;1.70;0.47;;;20.50;47.00;;;;;;5014948;28;20042;-88
2022/01/24 00:04:08;;;;;;;1.35;0.50;;;20.50;46.90;;;;;;5001772;28;20532;-87
2022/01/24 00:06:33;;;;;;;1.90;0.60;;;20.50;46.90;;;;;;4994489;28;20789;-88
2022/01/24 00:09:03;;;;;;;1.67;0.60;;;20.50;46.90;;;;;;4994993;28;20049;-88
2022/01/24 00:11:40;;;;;;;1.42;0.50;;;20.50;46.90;;;;;;4995078;28;20054;-88
2022/01/24 00:27:09;;;;;;;1.95;0.50;;;20.60;47.10;;;;;;5006281;28;20049;-88
2022/01/24 00:29:34;;;;;;;2.22;0.70;;;20.40;47.00;;;;;;5014464;28;20058;-88
2022/01/24 00:32:00;;;;;;;2.25;0.60;;;20.40;47.00;;;;;;5014978;28;20136;-87
2022/01/24 00:34:25;;;;;;;1.95;0.60;;;20.40;47.00;;;;;;5013869;28;20599;-88
2022/01/24 00:36:52;;;;;;;1.45;0.40;;;20.40;47.00;;;;;;5013838;28;20072;-88
2022/01/24 00:39:17;;;;;;;1.60;0.70;;;20.50;47.10;;;;;;5012999;28;20049;-89
2022/01/24 00:42:05;;;;;;;1.75;0.60;;;20.30;47.00;;;;;;5013427;28;20049;-88
2022/01/24 00:47:04;;;;;;;2.17;0.70;;;21.30;47.50;;;;;;5014440;28;20065;-89
2022/01/24 00:53:10;;;;;;;2.38;1.00;;;20.30;47.00;;;;;;5013365;28;20064;-87
2022/01/24 00:55:06;;;;;;;1.70;0.57;;;21.10;47.50;;;;;;5038352;28;20284;-88
2022/01/24 00:57:31;;;;;;;1.58;0.60;;;20.30;47.80;;;;;;5013930;28;20057;-87
2022/01/24 00:59:57;;;;;;;1.27;0.50;;;20.30;47.10;;;;;;5013671;28;20045;-87
2022/01/24 01:02:23;;;;;;;1.80;0.60;;;20.30;47.10;;;;;;5013335;28;20496;-87
2022/01/24 01:07:18;;;;;;;1.73;0.70;;;20.20;47.10;;;;;;5013997;28;20456;-88
2022/01/24 01:18:16;;;;;;;1.85;0.75;;;20.30;47.20;;;;;;5046531;28;20525;-88
2022/01/24 01:23:30;;;;;;;2.35;0.70;;;20.30;47.20;;;;;;5012916;28;20541;-88
2022/01/24 01:25:57;;;;;;;2.03;0.60;;;20.30;47.30;;;;;;5012997;28;20099;-88
2022/01/24 01:28:24;;;;;;;1.40;0.55;;;20.30;47.20;;;;;;5013153;28;20049;-87
2022/01/24 01:30:53;;;;;;;2.55;0.82;;;20.30;47.30;;;;;;5012792;28;20516;-87
2022/01/24 01:33:30;;;;;;;1.92;0.82;;;20.30;47.20;;;;;;5013178;28;20413;-88
2022/01/24 01:38:46;;;;;;;1.73;0.80;;;20.30;47.30;;;;;;5012558;28;20163;-88
2022/01/24 01:54:52;;;;;;;2.03;0.77;;;20.30;47.20;;;;;;5012897;28;20389;-87
2022/01/24 01:57:19;;;;;;;1.60;0.60;;;20.30;47.20;;;;;;5011548;28;20091;-88
2022/01/24 01:59:45;;;;;;;2.30;0.80;;;20.30;47.20;;;;;;5045476;28;20076;-86
2022/01/24 02:02:11;;;;;;;2.38;0.70;;;20.30;47.20;;;;;;5010330;28;20582;-86
2022/01/24 02:04:37;;;;;;;1.92;0.57;;;20.30;47.20;;;;;;5012127;28;20050;-87
2022/01/24 02:07:02;;;;;;;1.58;0.63;;;20.30;47.20;;;;;;5012500;28;20053;-87
2022/01/24 02:09:32;;;;;;;1.65;0.70;;;20.30;47.20;;;;;;5028823;28;20049;-87
2022/01/24 02:11:58;;;;;;;1.92;0.70;;;20.20;47.10;;;;;;5011880;28;20049;-87
2022/01/24 02:14:30;;;;;;;1.95;0.85;;;20.20;47.10;;;;;;5012605;28;20052;-87
2022/01/24 02:16:59;;;;;;;1.73;0.70;;;20.20;47.20;;;;;;5030131;28;20058;-87
2022/01/24 02:24:39;;;;;;;1.58;0.70;;;20.20;47.20;;;;;;5009732;28;20114;-87
2022/01/24 02:27:04;;;;;;;2.08;0.70;;;20.20;47.20;;;;;;5006416;28;20061;-87
2022/01/24 02:31:56;;;;;;;1.65;0.70;;;20.30;48.00;;;;;;5045343;28;20136;-87
2022/01/24 02:34:37;;;;;;;2.05;0.70;;;20.20;47.20;;;;;;5011524;28;20128;-85
2022/01/24 02:37:08;;;;;;;2.45;0.80;;;20.20;47.20;;;;;;5029624;28;20049;-87
2022/01/24 02:53:13;;;;;;;2.40;0.80;;;20.20;47.20;;;;;;5010803;28;20061;-87
2022/01/24 02:55:39;;;;;;;1.23;0.60;;;20.20;47.30;;;;;;5010852;28;20049;-88
2022/01/24 02:58:04;;;;;;;1.65;0.73;;;20.20;47.20;;;;;;5011955;28;20049;-87
2022/01/24 03:00:30;;;;;;;2.15;0.75;;;20.20;47.20;;;;;;5011740;28;20059;-87
2022/01/24 03:02:56;;;;;;;2.65;0.90;;;20.20;47.20;;;;;;5044146;28;20517;-87
2022/01/24 03:05:21;;;;;;;1.63;0.70;;;20.20;47.20;;;;;;5044877;28;20394;-88
2022/01/24 03:07:47;;;;;;;3.38;1.33;;;20.20;47.20;;;;;;5011152;28;20041;-87
2022/01/24 03:10:23;;;;;;;1.70;0.63;;;20.20;47.30;;;;;;5011100;28;20132;-88
2022/01/24 03:12:58;;;;;;;1.73;0.88;;;20.20;47.30;;;;;;5011550;28;20064;-88
2022/01/24 03:15:24;;;;;;;2.42;0.80;;;20.20;47.30;;;;;;5011415;28;20510;-87
2022/01/24 03:17:49;;;;;;;1.73;0.70;;;20.20;47.30;;;;;;5011726;28;20045;-87
2022/01/24 03:20:15;;;;;;;2.25;0.90;;;20.20;47.30;;;;;;5044671;28;20049;-87
2022/01/24 03:22:40;;;;;;;1.38;0.60;;;20.30;47.30;;;;;;5011229;28;20053;-87
2022/01/24 03:25:06;;;;;;;2.38;0.80;;;20.20;48.00;;;;;;5028767;28;20046;-89
2022/01/24 03:27:32;;;;;;;1.23;0.60;;;20.20;47.20;;;;;;5044977;28;20757;-88
2022/01/24 03:29:57;;;;;;;1.92;0.70;;;20.30;47.30;;;;;;5010650;28;20045;-86
2022/01/24 03:32:23;;;;;;;2.70;1.00;;;20.20;47.20;;;;;;5046638;28;20056;-86
2022/01/24 03:34:48;;;;;;;2.58;0.70;;;20.20;47.20;;;;;;5031290;28;20053;-87
2022/01/24 03:37:14;;;;;;;1.95;0.80;;;20.20;47.20;;;;;;5030237;28;20510;-87
2022/01/24 03:39:39;;;;;;;1.92;0.88;;;20.20;47.30;;;;;;5030879;28;20589;-87
2022/01/24 03:42:05;;;;;;;2.33;0.57;;;20.20;47.30;;;;;;5030774;28;20041;-86
2022/01/24 03:44:30;;;;;;;2.40;0.90;;;20.30;47.30;;;;;;5030109;28;20052;-87
2022/01/24 03:52:09;;;;;;;2.67;0.80;;;20.30;47.40;;;;;;5030238;28;20492;-86
2022/01/24 03:54:35;;;;;;;2.50;1.02;;;20.30;47.50;;;;;;5030827;28;20037;-87
2022/01/24 03:57:01;;;;;;;1.98;0.98;;;20.30;47.30;;;;;;5031003;28;20048;-87
2022/01/24 03:59:26;;;;;;;2.22;0.77;;;20.30;47.30;;;;;;5030538;28;20082;-87
2022/01/24 04:01:52;;;;;;;2.65;0.60;;;20.30;47.30;;;;;;5014084;28;20053;-87
2022/01/24 04:04:17;;;;;;;2.15;0.70;;;20.30;47.30;;;;;;5030365;28;20052;-87
2022/01/24 04:06:43;;;;;;;1.95;0.70;;;20.30;47.30;;;;;;5048666;28;20512;-87
2022/01/24 04:09:09;;;;;;;1.52;0.70;;;20.30;47.30;;;;;;5020268;28;20144;-87
2022/01/24 04:11:38;;;;;;;1.63;0.70;;;20.30;47.30;;;;;;5022901;28;20095;-87
2022/01/24 04:14:23;;;;;;;2.78;0.77;;;20.30;47.30;;;;;;5010844;28;20046;-87
2022/01/24 04:17:20;;;;;;;2.53;0.80;;;20.30;47.30;;;;;;5028704;28;20053;-86
2022/01/24 04:22:34;;;;;;;1.35;0.57;;;20.30;47.30;;;;;;5014298;28;20092;-87
2022/01/24 04:25:01;;;;;;;2.22;0.73;;;20.30;47.30;;;;;;5014628;28;20077;-87
2022/01/24 04:27:27;;;;;;;2.20;0.80;;;20.30;47.30;;;;;;5013771;28;20071;-88
2022/01/24 04:29:53;;;;;;;1.50;0.82;;;20.30;47.30;;;;;;5014342;28;20049;-87
2022/01/24 04:32:19;;;;;;;1.20;0.60;;;20.30;47.30;;;;;;5014008;28;20087;-87
2022/01/24 04:34:45;;;;;;;2.45;0.90;;;20.30;47.20;;;;;;5014226;28;20068;-87
2022/01/24 04:37:10;;;;;;;1.70;0.80;;;20.30;47.20;;;;;;5031833;28;20065;-86
2022/01/24 04:39:36;;;;;;;1.92;0.80;;;20.30;47.30;;;;;;5013592;28;20049;-88
2022/01/24 04:42:09;;;;;;;1.95;0.90;;;20.30;47.20;;;;;;5014669;28;20068;-87
2022/01/24 04:47:23;;;;;;;2.50;0.80;;;20.30;47.20;;;;;;5015342;28;20140;-88
2022/01/24 04:52:43;;;;;;;2.17;0.82;;;20.30;47.20;;;;;;5011287;28;20401;-87
2022/01/24 04:55:08;;;;;;;3.33;1.25;;;20.40;47.20;;;;;;5013214;28;20513;-87
2022/01/24 04:57:34;;;;;;;2.35;1.15;;;20.40;47.30;;;;;;5013894;28;20053;-88
2022/01/24 05:00:00;;;;;;;1.80;0.80;;;20.40;47.30;;;;;;5013944;28;20144;-87
2022/01/24 05:02:26;;;;;;;2.83;1.00;;;20.40;47.20;;;;;;5010267;28;20050;-87
2022/01/24 05:04:53;;;;;;;2.25;0.88;;;20.40;47.20;;;;;;5009549;28;20062;-87
2022/01/24 05:07:18;;;;;;;2.22;1.05;;;20.40;47.20;;;;;;4994102;28;20064;-87
2022/01/24 05:09:52;;;;;;;1.75;0.85;;;20.40;47.20;;;;;;5011041;28;20053;-87
2022/01/24 05:21:22;;;;;;;2.58;0.90;;;20.40;47.20;;;;;;5011491;28;20042;-88
2022/01/24 05:23:39;;;;;;;2.85;1.00;;;20.40;47.20;;;;;;5012836;28;20136;-87
2022/01/24 05:26:06;;;;;;;2.95;1.10;;;20.40;47.20;;;;;;5013199;28;20139;-87
2022/01/24 05:28:33;;;;;;;2.80;1.23;;;20.40;47.20;;;;;;5013043;28;20522;-87
2022/01/24 05:30:58;;;;;;;2.17;0.95;;;20.40;47.20;;;;;;5012390;28;20056;-88
2022/01/24 05:33:24;;;;;;;1.92;0.70;;;20.40;47.20;;;;;;5013534;28;20053;-89
2022/01/24 05:35:50;;;;;;;2.15;0.90;;;20.40;47.20;;;;;;5027917;28;20153;-87
2022/01/24 05:38:15;;;;;;;1.95;0.70;;;20.40;47.30;;;;;;5013953;28;20107;-90
2022/01/24 05:40:41;;;;;;;2.75;0.80;;;20.40;47.30;;;;;;5013929;28;20054;-89
2022/01/24 05:43:07;;;;;;;2.45;0.90;;;20.40;47.30;;;;;;5013288;28;20049;-89
2022/01/24 05:45:33;;;;;;;2.42;0.95;;;20.40;47.30;;;;;;5013247;28;20045;-89
2022/01/24 05:47:59;;;;;;;2.38;0.98;;;20.40;48.00;;;;;;5013225;28;20048;-89
2022/01/24 05:50:25;;;;;;;2.13;1.15;;;20.50;47.30;;;;;;5013282;28;20045;-89
2022/01/24 05:52:50;;;;;;;1.85;0.80;;;20.50;47.30;;;;;;5013790;28;20053;-89
2022/01/24 05:55:16;;;;;;;2.50;1.02;;;20.50;47.30;;;;;;5013427;28;20088;-89
2022/01/24 05:57:42;;;;;;;2.90;1.00;;;20.50;47.30;;;;;;5012963;28;20053;-89
2022/01/24 06:00:08;;;;;;;2.50;1.15;;;20.50;47.30;;;;;;5013486;28;20425;-89
2022/01/24 06:02:34;;;;;;;2.03;0.90;;;20.50;47.30;;;;;;5046700;28;20058;-89
2022/01/24 06:05:00;;;;;;;2.92;1.30;;;20.50;47.30;;;;;;5012754;28;20536;-89
2022/01/24 06:07:25;;;;;;;2.45;1.20;;;20.50;47.20;;;;;;5013242;28;20405;-89
2022/01/24 06:09:51;;;;;;;2.60;0.90;;;20.50;47.20;;;;;;5013153;28;20041;-90
2022/01/24 06:12:16;;;;;;;2.38;1.13;;;20.50;47.20;;;;;;5012674;28;20101;-89
2022/01/24 06:14:42;;;;;;;2.50;1.10;;;20.60;47.30;;;;;;5013217;28;20050;-89
2022/01/24 06:17:08;;;;;;;2.20;1.00;;;20.60;47.30;;;;;;5013034;28;20048;-90
2022/01/24 06:19:33;;;;;;;2.75;0.93;;;20.60;47.30;;;;;;5012351;28;20045;-90
2022/01/24 06:21:59;;;;;;;1.77;0.80;;;20.60;47.20;;;;;;5010936;28;20064;-90
2022/01/24 06:24:24;;;;;;;4.10;1.20;;;20.60;47.20;;;;;;5011587;28;20141;-90
2022/01/24 06:26:50;;;;;;;2.55;1.00;;;20.60;47.20;;;;;;5029926;28;20072;-90
2022/01/24 06:29:15;;;;;;;2.65;1.17;;;20.60;47.20;;;;;;5012845;28;20056;-89
2022/01/24 06:31:41;;;;;;;2.58;1.00;;;20.60;47.20;;;;;;5001327;28;20049;-89
2022/01/24 06:34:06;;;;;;;2.05;0.95;;;20.60;47.20;;;;;;5013920;28;20128;-89
2022/01/24 06:36:32;;;;;;;2.65;1.10;;;20.70;47.30;;;;;;5012611;28;20061;-89
2022/01/24 06:39:00;;;;;;;3.00;1.10;;;20.70;47.20;;;;;;5012171;28;20573;-90
2022/01/24 06:41:30;;;;;;;2.97;1.10;;;20.70;47.20;;;;;;5011401;28;20053;-91
2022/01/24 06:43:56;;;;;;;3.30;1.52;;;20.70;47.20;;;;;;5011979;28;20049;-89
2022/01/24 06:46:21;;;;;;;2.03;1.08;;;20.70;47.30;;;;;;5012084;28;20049;-89
2022/01/24 06:48:47;;;;;;;2.30;1.10;;;20.70;47.30;;;;;;5011047;28;20057;-89
2022/01/24 06:51:12;;;;;;;2.20;1.00;;;20.70;47.20;;;;;;4997161;28;20046;-89
2022/01/24 06:53:38;;;;;;;1.60;0.80;;;20.70;47.20;;;;;;4991991;28;20100;-90
2022/01/24 06:56:07;;;;;;;3.30;1.10;;;20.80;47.30;;;;;;5023531;28;20518;-89
2022/01/24 06:58:33;;;;;;;2.97;1.27;;;20.70;47.90;;;;;;5008194;28;20045;-89
2022/01/24 07:00:59;;;;;;;2.08;1.00;;;20.80;47.30;;;;;;5018137;28;20159;-90
2022/01/24 07:03:25;;;;;;;2.58;1.05;;;20.80;47.30;;;;;;5012642;28;20057;-91
2022/01/24 07:05:50;;;;;;;2.53;1.10;;;20.80;47.30;;;;;;5011028;28;20076;-89
2022/01/24 07:08:16;;;;;;;2.60;1.00;;;20.90;47.30;;;;;;5012215;28;20091;-88
2022/01/24 07:10:41;;;;;;;2.28;1.17;;;22.00;47.90;;;;;;5011895;28;20053;-86
2022/01/24 07:13:07;;;;;;;2.58;1.23;;;20.90;47.20;;;;;;5027444;28;20052;-87
2022/01/24 07:15:45;;;;;;;2.83;1.25;;;20.90;47.20;;;;;;5007380;28;20080;-88
2022/01/24 07:18:57;;;;;;;3.67;1.40;;;20.90;47.20;;;;;;5012403;28;20045;-88
2022/01/24 07:21:04;;;;;;;3.10;1.45;;;20.90;47.10;;;;;;5009717;28;20215;-87
2022/01/24 07:23:29;;;;;;;3.22;1.30;;;21.00;47.20;;;;;;5009333;28;20539;-89
2022/01/24 07:25:55;;;;;;;4.40;1.60;;;21.00;47.10;;;;;;5011617;28;20069;-88
2022/01/24 07:28:21;;;;;;;4.75;1.50;;;21.00;47.10;;;;;;5003278;28;20428;-88
2022/01/24 07:30:46;;;;;;;2.85;1.30;;;21.00;47.10;;;;;;5011554;28;20060;-88
2022/01/24 07:33:14;;;;;;;4.05;1.92;;;21.00;47.00;;;;;;5014777;28;20049;-89
2022/01/24 07:35:39;;;;;;;3.30;1.27;;;21.00;47.00;;;;;;5043605;28;20049;-89
2022/01/24 07:38:05;;;;;;;3.55;1.52;;;21.00;47.00;;;;;;5011179;28;20406;-89
2022/01/24 07:40:36;;;;;;;3.53;1.33;;;21.00;47.00;;;;;;5011167;28;20096;-87
2022/01/24 07:43:10;;;;;;;2.72;1.30;;;21.00;47.00;;;;;;5022644;28;20127;-88
2022/01/24 07:45:36;;;;;;;3.90;1.55;;;21.00;47.00;;;;;;4997200;28;20100;-88
2022/01/24 07:48:02;;;;;;;3.20;1.50;;;21.00;47.00;;;;;;5000758;28;20081;-89
2022/01/24 07:50:28;;;;;;;5.07;1.80;;;21.00;47.00;;;;;;5009752;28;20595;-88
2022/01/24 07:52:55;;;;;;;2.95;1.40;;;21.00;47.00;;;;;;5011602;28;20085;-88
2022/01/24 07:55:21;;;;;;;4.38;1.70;;;21.00;46.90;;;;;;5032732;28;20065;-88
2022/01/24 07:57:46;;;;;;;3.60;1.60;;;21.00;46.90;;;;;;5013898;28;20412;-87
2022/01/24 08:00:12;;;;;;;2.65;1.40;;;21.00;46.90;;;;;;5015144;28;20049;-88
2022/01/24 08:02:38;;;;;;;3.78;1.77;;;20.90;46.90;;;;;;5029649;28;20408;-86
2022/01/24 08:05:05;;;;;;;4.18;1.73;;;21.00;46.90;;;;;;5033827;28;20053;-87
2022/01/24 08:07:31;;;;;;;4.07;1.80;;;20.90;46.90;;;;;;5013858;28;20097;-86
2022/01/24 08:09:56;;;;;;;4.60;2.00;;;20.90;46.90;;;;;;5003724;28;20141;-80
2022/01/24 08:12:22;;;;;;;3.60;1.70;;;20.90;46.90;;;;;;5007574;28;20061;-80
2022/01/24 08:14:50;;;;;;;3.85;1.48;;;20.90;46.80;;;;;;5002970;28;20091;-81
2022/01/24 08:17:16;;;;;;;9.07;4.45;;;21.00;46.90;;;;;;4999302;28;20136;-81
2022/01/24 08:19:41;;;;;;;8.98;5.78;;;20.90;46.70;;;;;;5005847;28;20144;-80
2022/01/24 08:22:07;;;;;;;10.07;5.65;;;20.90;46.60;;;;;;5011130;28;20042;-80
2022/01/24 08:24:33;;;;;;;13.30;5.38;;;20.90;46.60;;;;;;5006835;28;20052;-80
2022/01/24 08:26:58;;;;;;;11.70;5.63;;;20.80;46.60;;;;;;5012255;28;20042;-79
2022/01/24 08:29:24;;;;;;;8.43;4.93;;;20.80;46.60;;;;;;4998746;28;20049;-80
2022/01/24 08:31:49;;;;;;;7.35;4.32;;;20.80;46.70;;;;;;5012242;28;20057;-80
2022/01/24 08:34:16;;;;;;;8.75;4.78;;;20.70;46.70;;;;;;5009301;28;20132;-80
2022/01/24 08:36:41;;;;;;;10.57;4.85;;;21.00;46.90;;;;;;5013879;28;20067;-86
2022/01/24 08:39:08;;;;;;;7.97;4.60;;;20.70;46.70;;;;;;5008962;28;20661;-83
2022/01/24 08:41:58;;;;;;;7.95;4.85;;;20.70;46.70;;;;;;5010167;28;20050;-86
2022/01/24 08:46:50;;;;;;;9.93;5.07;;;20.60;46.80;;;;;;5012746;28;20064;-85
2022/01/24 08:49:16;;;;;;;10.50;5.28;;;20.60;46.80;;;;;;5008878;28;20049;-86
2022/01/24 08:51:42;;;;;;;9.32;4.95;;;20.60;46.90;;;;;;5009273;28;20038;-87
2022/01/24 08:54:07;;;;;;;9.52;4.65;;;20.60;46.90;;;;;;5008718;28;20490;-87
2022/01/24 08:56:33;;;;;;;7.75;5.07;;;20.60;46.90;;;;;;5003634;28;20049;-85
2022/01/24 08:58:59;;;;;;;6.63;4.65;;;20.60;47.00;;;;;;5011777;28;20054;-85
2022/01/24 09:01:24;;;;;;;9.27;5.15;;;20.60;47.70;;;;;;5011015;28;20080;-84
2022/01/24 09:03:50;;;;;;;8.00;4.50;;;20.60;47.00;;;;;;5012980;28;20049;-83
2022/01/24 09:06:18;;;;;;;9.43;4.63;;;20.60;47.00;;;;;;5008397;28;20046;-84
2022/01/24 09:08:44;;;;;;;6.72;4.22;;;20.50;47.00;;;;;;5009357;28;20042;-84
2022/01/24 09:11:10;;;;;;;8.23;4.60;;;20.50;46.90;;;;;;5009501;28;20037;-87
2022/01/24 09:13:35;;;;;;;7.25;4.10;;;20.50;47.00;;;;;;5013143;28;20575;-87
2022/01/24 09:16:01;;;;;;;7.53;4.10;;;20.50;47.10;;;;;;5021286;28;20132;-87
2022/01/24 09:18:31;;;;;;;6.78;4.15;;;20.50;47.10;;;;;;5009253;28;20103;-87
2022/01/24 09:20:57;;;;;;;5.85;3.97;;;20.50;47.10;;;;;;5003321;28;20034;-87
2022/01/24 09:23:22;;;;;;;7.95;4.43;;;20.50;47.00;;;;;;5007300;28;20049;-87
2022/01/24 09:25:49;;;;;;;6.25;4.10;;;21.50;47.50;;;;;;5007989;28;20046;-87
2022/01/24 09:28:15;;;;;;;6.80;4.18;;;20.60;47.10;;;;;;4991508;28;20054;-88
2022/01/24 09:30:40;;;;;;;7.60;4.13;;;20.60;47.00;;;;;;5006150;28;20402;-91
2022/01/24 09:33:06;;;;;;;9.30;4.28;;;20.60;47.00;;;;;;5008765;28;20040;-88
2022/01/24 09:35:32;;;;;;;6.95;4.53;;;20.60;47.00;;;;;;5007307;28;20057;-88
2022/01/24 09:37:57;;;;;;;8.82;4.38;;;20.60;46.90;;;;;;5009234;28;20509;-88
2022/01/24 09:40:23;;;;;;;6.47;4.47;;;20.60;46.90;;;;;;5000550;28;20073;-88
2022/01/24 09:42:52;;;;;;;6.75;4.40;;;20.60;46.90;;;;;;4985314;28;20052;-87
2022/01/24 09:45:17;;;;;;;7.10;4.43;;;20.60;46.90;;;;;;4990964;28;20068;-82
2022/01/24 09:47:43;;;;;;;7.20;4.40;;;20.60;46.90;;;;;;5026107;28;20501;-88
2022/01/24 09:50:11;;;;;;;6.00;3.75;;;20.60;46.90;;;;;;5029925;28;20049;-88
2022/01/24 09:52:39;;;;;;;5.60;3.70;;;20.60;46.90;;;;;;5021424;28;20068;-88
2022/01/24 09:55:05;;;;;;;6.40;3.50;;;20.60;47.00;;;;;;5018105;28;20042;-87
2022/01/24 09:57:30;;;;;;;5.35;3.00;;;20.60;47.70;;;;;;5027422;28;20038;-87
2022/01/24 09:59:56;;;;;;;5.05;2.90;;;20.60;47.00;;;;;;5027123;28;20049;-88
2022/01/24 10:02:25;;;;;;;5.95;3.15;;;20.60;47.00;;;;;;5058623;28;20515;-87
2022/01/24 10:04:51;;;;;;;6.43;3.17;;;20.70;47.00;;;;;;5025753;28;20056;-87
2022/01/24 10:07:17;;;;;;;4.97;2.70;;;20.70;47.00;;;;;;5028827;28;20058;-85
2022/01/24 10:09:47;;;;;;;5.03;2.60;;;20.70;47.00;;;;;;5059335;28;20045;-86
2022/01/24 10:17:37;;;;;;;4.10;2.33;;;20.70;47.00;;;;;;5026933;28;20089;-87
2022/01/24 10:20:26;;;;;;;4.57;2.53;;;20.70;46.90;;;;;;5031960;28;20040;-90
2022/01/24 10:23:13;;;;;;;8.43;5.25;;;20.70;46.90;;;;;;5029878;28;20453;-87
2022/01/24 10:25:52;;;;;;;7.70;5.68;;;20.70;46.70;;;;;;5031089;28;20433;-88
2022/01/24 10:28:27;;;;;;;8.35;4.97;;;20.70;46.60;;;;;;5032022;28;20135;-88
2022/01/24 10:31:03;;;;;;;8.82;4.70;;;20.70;46.70;;;;;;5031402;28;20519;-88
2022/01/24 10:33:28;;;;;;;8.93;5.18;;;21.50;47.20;;;;;;5030799;28;20051;-89
2022/01/24 10:35:54;;;;;;;11.25;6.20;;;20.70;46.60;;;;;;5024706;28;20041;-89
2022/01/24 10:38:40;;;;;;;9.93;6.20;;;20.60;46.60;;;;;;5030552;28;20118;-87
2022/01/24 10:43:41;;;;;;;7.63;5.18;;;20.60;46.80;;;;;;5032197;28;20106;-87
2022/01/24 10:46:08;;;;;;;8.55;5.20;;;20.50;46.80;;;;;;5056128;28;20057;-91
2022/01/24 10:48:42;;;;;;;9.30;5.90;;;20.50;46.90;;;;;;5023663;28;20118;-87
2022/01/24 10:51:19;;;;;;;8.73;4.93;;;20.50;47.00;;;;;;5027869;28;20064;-88
2022/01/24 10:53:53;;;;;;;7.85;5.03;;;20.50;47.00;;;;;;5030370;28;20230;-86
2022/01/24 10:56:37;;;;;;;9.65;5.60;;;20.50;47.10;;;;;;5021812;28;20045;-89
2022/01/24 10:59:21;;;;;;;10.05;4.80;;;20.50;47.20;;;;;;5024583;28;20091;-89
2022/01/24 11:01:53;;;;;;;8.65;5.15;;;19.80;46.90;;;;;;5026288;28;20099;-91
2022/01/24 11:04:19;;;;;;;8.23;4.57;;;20.50;47.30;;;;;;5027829;28;20037;-85
2022/01/24 11:06:47;;;;;;;5.35;3.60;;;20.50;47.30;;;;;;5058467;28;20056;-84
2022/01/24 11:09:28;;;;;;;5.88;3.67;;;20.60;47.30;;;;;;5019735;28;20048;-85
2022/01/24 11:12:12;;;;;;;5.10;3.35;;;20.60;47.30;;;;;;5021436;28;20049;-84
2022/01/24 11:14:47;;;;;;;6.70;3.28;;;20.60;47.20;;;;;;5030318;28;20459;-84
2022/01/24 11:17:15;;;;;;;5.15;2.85;;;20.60;47.20;;;;;;5031219;28;20466;-83
2022/01/24 11:19:45;;;;;;;7.38;3.42;;;20.60;47.20;;;;;;5026818;28;20104;-85
2022/01/24 11:22:22;;;;;;;6.18;3.38;;;20.70;47.30;;;;;;5018798;28;20041;-84
2022/01/24 11:24:55;;;;;;;5.55;3.08;;;20.70;47.20;;;;;;5021665;28;20116;-85
2022/01/24 11:27:21;;;;;;;5.40;3.35;;;20.70;47.20;;;;;;5029749;28;20041;-85
2022/01/24 11:29:49;;;;;;;4.22;2.45;;;20.70;47.10;;;;;;5064375;28;20144;-85
2022/01/24 11:32:33;;;;;;;5.13;2.83;;;22.40;48.00;;;;;;5041955;28;20127;-85
2022/01/24 11:34:59;;;;;;;4.72;2.72;;;20.70;47.10;;;;;;4999289;28;21388;-85
2022/01/24 11:37:46;;;;;;;6.00;2.58;;;20.70;47.10;;;;;;5031538;28;20041;-85
2022/01/24 11:40:16;;;;;;;5.32;2.67;;;20.70;47.10;;;;;;5042987;28;20041;-85
2022/01/24 11:42:47;;;;;;;3.92;2.38;;;20.70;47.00;;;;;;5033342;28;20057;-85
2022/01/24 11:45:14;;;;;;;3.95;2.20;;;20.80;47.20;;;;;;5034702;28;20044;-85
2022/01/24 11:47:41;;;;;;;3.63;2.20;;;20.80;47.10;;;;;;5034626;28;20095;-85
2022/01/24 11:50:37;;;;;;;5.32;2.47;;;20.80;47.20;;;;;;5033869;28;20128;-85
2022/01/24 11:53:24;;;;;;;3.95;2.10;;;20.80;47.10;;;;;;5034516;28;20060;-84
2022/01/24 11:55:50;;;;;;;4.63;2.30;;;20.80;47.10;;;;;;5033210;28;20397;-85
2022/01/24 11:58:30;;;;;;;3.72;1.90;;;20.80;47.10;;;;;;5034418;28;20057;-85
2022/01/24 12:01:01;;;;;;;3.78;2.05;;;21.70;47.50;;;;;;5033421;28;20037;-84
2022/01/24 12:03:37;;;;;;;3.70;2.10;;;20.80;47.10;;;;;;5030018;28;20086;-87
2022/01/24 12:06:19;;;;;;;7.20;2.45;;;20.80;47.00;;;;;;5043032;28;20374;-85
2022/01/24 12:08:46;;;;;;;8.18;4.82;;;20.80;47.00;;;;;;5033176;28;20056;-87
2022/01/24 12:11:21;;;;;;;11.43;5.20;;;20.80;46.80;;;;;;5034276;28;20148;-85
2022/01/24 12:13:53;;;;;;;9.48;5.50;;;20.80;46.80;;;;;;5034154;28;20408;-84
2022/01/24 12:16:20;;;;;;;7.95;4.82;;;20.70;46.80;;;;;;5034327;28;20060;-84
2022/01/24 12:18:48;;;;;;;8.05;5.57;;;20.70;46.80;;;;;;5033432;28;20451;-84
2022/01/24 12:21:24;;;;;;;7.82;5.05;;;21.70;47.40;;;;;;5034486;28;20045;-85
2022/01/24 12:23:59;;;;;;;7.22;5.53;;;20.70;46.90;;;;;;5032425;28;20049;-80
2022/01/24 12:26:26;;;;;;;7.43;5.10;;;20.70;47.20;;;;;;5035053;28;20045;-81
2022/01/24 12:28:59;;;;;;;17.00;5.50;;;21.00;47.20;;;;;;5029631;28;20045;-81
2022/01/24 12:31:33;;;;;;;7.03;5.43;;;20.70;47.10;;;;;;5031708;28;20048;-81
2022/01/24 12:34:15;;;;;;;7.05;5.35;;;20.60;47.10;;;;;;5033073;28;20091;-81
2022/01/24 12:36:47;;;;;;;7.70;5.55;;;20.60;47.10;;;;;;5032489;28;20523;-82
2022/01/24 12:39:34;;;;;;;6.82;4.93;;;20.60;47.20;;;;;;5032298;28;20126;-80
2022/01/24 12:42:05;;;;;;;8.88;5.00;;;20.60;47.20;;;;;;5022968;28;20093;-81
2022/01/24 12:47:20;;;;;;;6.22;4.82;;;20.60;47.30;;;;;;5011731;28;20080;-81
2022/01/24 12:49:46;;;;;;;;;;;20.60;47.30;;;;;;5013906;28;20505;-81
2022/01/24 12:52:17;;;;;;;7.35;4.78;;;20.60;47.30;;;;;;5012670;28;19971;-83
2022/01/24 12:54:48;;;;;;;10.80;4.80;;;20.60;47.30;;;;;;5013666;28;20168;-82
2022/01/24 12:57:15;;;;;;;7.65;5.15;;;20.60;47.30;;;;;;4996108;28;20060;-82
2022/01/24 12:59:55;;;;;;;6.50;5.00;;;20.60;47.40;;;;;;5009374;28;20533;-81
2022/01/24 13:02:28;;;;;;;6.32;4.50;;;20.60;47.40;;;;;;5013028;28;20053;-82
2022/01/24 13:05:00;;;;;;;6.55;4.20;;;20.60;47.40;;;;;;5013167;28;20099;-81
2022/01/24 13:07:26;;;;;;;6.13;4.60;;;20.60;47.40;;;;;;5012898;28;20045;-82
2022/01/24 13:09:52;;;;;;;6.38;4.78;;;20.60;47.40;;;;;;5013165;28;20596;-79
2022/01/24 13:12:17;;;;;;;6.00;4.50;;;20.60;47.50;;;;;;4980545;28;20120;-78
2022/01/24 13:14:50;;;;;;;7.78;5.15;;;20.60;47.50;;;;;;4979654;28;20057;-78
2022/01/24 13:22:58;;;;;;;5.53;4.20;;;20.60;47.70;;;;;;5026823;28;20073;-78
2022/01/24 13:25:31;;;;;;;6.45;4.45;;;20.50;47.50;;;;;;5012619;28;20854;-79
2022/01/24 13:27:59;;;;;;;5.78;4.47;;;20.50;47.60;;;;;;5012061;28;20511;-79
2022/01/24 13:30:30;;;;;;;6.97;4.57;;;20.50;47.60;;;;;;4996456;28;20048;-79
2022/01/24 13:32:57;;;;;;;5.72;4.22;;;20.50;47.60;;;;;;5012813;28;20076;-79
2022/01/24 13:35:30;;;;;;;5.95;4.32;;;20.50;47.60;;;;;;5012181;28;20045;-78
2022/01/24 13:38:07;;;;;;;5.43;4.00;;;20.50;47.70;;;;;;5012450;28;20089;-79
2022/01/24 13:40:36;;;;;;;6.00;4.25;;;20.50;47.70;;;;;;5030179;28;20049;-79
2022/01/24 13:43:02;;;;;;;6.13;3.85;;;20.50;47.70;;;;;;5011720;28;20053;-82
2022/01/24 13:45:28;;;;;;;6.55;4.43;;;20.50;47.70;;;;;;4996022;28;20069;-79
2022/01/24 13:48:00;;;;;;;6.55;4.72;;;20.50;47.70;;;;;;4996009;28;20042;-79
2022/01/24 13:50:26;;;;;;;8.27;4.65;;;21.30;48.10;;;;;;5011944;28;20425;-80
2022/01/24 13:52:52;;;;;;;5.85;4.20;;;20.50;47.70;;;;;;5012067;28;20044;-79
2022/01/24 13:55:18;;;;;;;6.22;4.07;;;20.50;47.70;;;;;;5011496;28;20045;-79
2022/01/24 13:57:48;;;;;;;6.10;4.35;;;20.40;47.70;;;;;;5012138;28;20075;-79
2022/01/24 14:00:16;;;;;;;6.22;4.35;;;20.40;47.70;;;;;;5011832;28;20064;-79
2022/01/24 14:02:41;;;;;;;5.90;4.05;;;20.40;47.80;;;;;;5011279;28;20140;-80
2022/01/24 14:05:09;;;;;;;5.45;3.95;;;20.40;47.80;;;;;;5013955;28;20125;-83
2022/01/24 14:07:41;;;;;;;6.80;3.58;;;20.40;48.00;;;;;;5013619;28;20064;-81
2022/01/24 14:10:09;;;;;;;;;;;20.40;48.00;;;;;;5007619;28;20050;-82
2022/01/24 14:12:43;;;;;;;3.92;2.65;;;20.40;47.90;;;;;;5011722;28;19924;-84
2022/01/24 14:20:50;;;;;;;8.10;3.30;;;20.50;47.90;;;;;;5011557;28;20064;-83
2022/01/24 14:23:35;;;;;;;4.10;2.70;;;20.60;48.00;;;;;;5008844;28;20044;-82
2022/01/24 14:26:23;;;;;;;3.72;2.38;;;20.60;47.80;;;;;;4996104;28;20068;-83
2022/01/24 14:29:02;;;;;;;4.63;2.83;;;20.70;47.80;;;;;;5011077;28;20068;-82
2022/01/24 14:31:28;;;;;;;3.20;2.20;;;20.70;47.70;;;;;;4995630;28;20180;-83
2022/01/24 14:33:59;;;;;;;3.22;2.03;;;20.70;47.70;;;;;;4994951;28;20533;-83
2022/01/24 14:36:24;;;;;;;3.00;1.93;;;20.80;47.70;;;;;;5011439;28;20057;-83
2022/01/24 14:39:00;;;;;;;4.30;1.73;;;20.80;47.70;;;;;;5010172;28;20402;-82
2022/01/24 14:41:44;;;;;;;3.72;1.90;;;20.90;47.70;;;;;;5011298;28;20099;-82
2022/01/24 14:46:55;;;;;;;3.78;1.92;;;20.90;47.60;;;;;;5011348;28;20041;-82
2022/01/24 14:49:25;;;;;;;3.13;1.98;;;20.20;47.20;;;;;;5010810;28;20049;-78
2022/01/24 14:51:52;;;;;;;4.07;2.33;;;21.00;47.60;;;;;;5028295;28;20049;-81
2022/01/24 14:54:22;;;;;;;5.88;2.20;;;21.00;47.30;;;;;;5010886;28;20063;-81
2022/01/24 14:56:54;;;;;;;4.50;2.65;;;21.10;47.20;;;;;;5011688;28;20075;-81